sensor_id;sensor_type;location;lat;lon;timestamp;P1;durP1;ratioP1;P2;durP2;ratioP2
9072;SDS011;4572;41.642;25.370;2023-06-10T00:02:25;5.15;;;3.00;;
9072;SDS011;4572;41.642;25.370;2023-06-10T00:04:52;2.90;;;2.60;;
9072;SDS011;4572;41.642;25.370;2023-06-10T00:07:17;2.47;;;2.28;;
9072;SDS011;4572;41.642;25.370;2023-06-10T00:09:43;3.75;;;2.72;;
9072;SDS011;4572;41.642;25.370;2023-06-10T00:12:09;2.85;;;2.50;;
9072;SDS011;4572;41.642;25.370;2023-06-10T00:14:38;3.90;;;3.05;;
9072;SDS011;4572;41.642;25.370;2023-06-10T00:17:05;3.80;;;2.70;;
9072;SDS011;4572;41.642;25.370;2023-06-10T00:19:35;3.65;;;2.50;;
9072;SDS011;4572;41.642;25.370;2023-06-10T00:22:01;3.28;;;2.67;;
9072;SDS011;4572;41.642;25.370;2023-06-10T00:24:28;4.93;;;2.78;;
9072;SDS011;4572;41.642;25.370;2023-06-10T00:26:53;3.47;;;2.80;;
9072;SDS011;4572;41.642;25.370;2023-06-10T00:29:19;4.27;;;2.80;;
9072;SDS011;4572;41.642;25.370;2023-06-10T00:31:45;6.72;;;3.10;;
9072;SDS011;4572;41.642;25.370;2023-06-10T00:34:11;3.03;;;2.23;;
9072;SDS011;4572;41.642;25.370;2023-06-10T00:36:36;3.57;;;2.83;;
9072;SDS011;4572;41.642;25.370;2023-06-10T00:39:02;4.83;;;3.10;;
9072;SDS011;4572;41.642;25.370;2023-06-10T00:41:29;3.47;;;2.70;;
9072;SDS011;4572;41.642;25.370;2023-06-10T00:43:55;5.10;;;2.90;;
9072;SDS011;4572;41.642;25.370;2023-06-10T00:46:21;3.60;;;2.58;;
9072;SDS011;4572;41.642;25.370;2023-06-10T00:48:47;3.03;;;2.55;;
9072;SDS011;4572;41.642;25.370;2023-06-10T00:51:12;3.65;;;2.38;;
9072;SDS011;4572;41.642;25.370;2023-06-10T00:53:39;3.78;;;2.67;;
9072;SDS011;4572;41.642;25.370;2023-06-10T00:56:05;3.27;;;2.60;;
9072;SDS011;4572;41.642;25.370;2023-06-10T00:58:31;3.77;;;3.00;;
9072;SDS011;4572;41.642;25.370;2023-06-10T01:00:56;2.70;;;2.45;;
9072;SDS011;4572;41.642;25.370;2023-06-10T01:03:23;3.05;;;2.70;;
9072;SDS011;4572;41.642;25.370;2023-06-10T01:05:50;3.33;;;2.60;;
9072;SDS011;4572;41.642;25.370;2023-06-10T01:08:28;3.58;;;2.42;;
9072;SDS011;4572;41.642;25.370;2023-06-10T01:11:17;3.10;;;2.60;;
9072;SDS011;4572;41.642;25.370;2023-06-10T01:13:49;3.45;;;2.95;;
9072;SDS011;4572;41.642;25.370;2023-06-10T01:16:17;3.28;;;2.33;;
9072;SDS011;4572;41.642;25.370;2023-06-10T01:18:44;4.47;;;2.80;;
9072;SDS011;4572;41.642;25.370;2023-06-10T01:21:12;4.70;;;3.20;;
9072;SDS011;4572;41.642;25.370;2023-06-10T01:23:38;3.40;;;3.00;;
9072;SDS011;4572;41.642;25.370;2023-06-10T01:26:06;3.70;;;2.97;;
9072;SDS011;4572;41.642;25.370;2023-06-10T01:29:36;3.07;;;2.80;;
9072;SDS011;4572;41.642;25.370;2023-06-10T01:32:01;3.27;;;2.90;;
9072;SDS011;4572;41.642;25.370;2023-06-10T01:34:30;3.73;;;2.83;;
9072;SDS011;4572;41.642;25.370;2023-06-10T01:36:56;4.53;;;3.17;;
9072;SDS011;4572;41.642;25.370;2023-06-10T01:39:23;4.00;;;2.90;;
9072;SDS011;4572;41.642;25.370;2023-06-10T01:41:50;3.17;;;2.60;;
9072;SDS011;4572;41.642;25.370;2023-06-10T01:44:17;3.90;;;3.00;;
9072;SDS011;4572;41.642;25.370;2023-06-10T01:46:47;4.40;;;3.40;;
9072;SDS011;4572;41.642;25.370;2023-06-10T01:49:12;4.55;;;3.05;;
9072;SDS011;4572;41.642;25.370;2023-06-10T01:51:38;3.33;;;2.70;;
9072;SDS011;4572;41.642;25.370;2023-06-10T01:54:04;3.20;;;2.80;;
9072;SDS011;4572;41.642;25.370;2023-06-10T01:56:30;3.50;;;2.73;;
9072;SDS011;4572;41.642;25.370;2023-06-10T01:58:56;5.50;;;2.67;;
9072;SDS011;4572;41.642;25.370;2023-06-10T02:01:24;3.30;;;3.00;;
9072;SDS011;4572;41.642;25.370;2023-06-10T02:03:50;4.63;;;2.80;;
9072;SDS011;4572;41.642;25.370;2023-06-10T02:06:16;3.03;;;2.73;;
9072;SDS011;4572;41.642;25.370;2023-06-10T02:08:41;2.90;;;2.60;;
9072;SDS011;4572;41.642;25.370;2023-06-10T02:11:07;3.10;;;2.80;;
9072;SDS011;4572;41.642;25.370;2023-06-10T02:13:32;4.00;;;2.83;;
9072;SDS011;4572;41.642;25.370;2023-06-10T02:15:58;3.53;;;3.13;;
9072;SDS011;4572;41.642;25.370;2023-06-10T02:18:24;3.33;;;2.40;;
9072;SDS011;4572;41.642;25.370;2023-06-10T02:20:52;3.60;;;2.87;;
9072;SDS011;4572;41.642;25.370;2023-06-10T02:23:17;5.77;;;2.83;;
9072;SDS011;4572;41.642;25.370;2023-06-10T02:25:43;4.67;;;3.17;;
9072;SDS011;4572;41.642;25.370;2023-06-10T02:28:09;3.53;;;2.83;;
9072;SDS011;4572;41.642;25.370;2023-06-10T02:30:34;3.30;;;2.70;;
9072;SDS011;4572;41.642;25.370;2023-06-10T02:33:00;3.17;;;2.87;;
9072;SDS011;4572;41.642;25.370;2023-06-10T02:35:26;3.33;;;2.93;;
9072;SDS011;4572;41.642;25.370;2023-06-10T02:37:51;7.90;;;3.00;;
9072;SDS011;4572;41.642;25.370;2023-06-10T02:40:17;3.70;;;2.80;;
9072;SDS011;4572;41.642;25.370;2023-06-10T02:42:42;2.97;;;2.63;;
9072;SDS011;4572;41.642;25.370;2023-06-10T02:45:08;3.40;;;2.60;;
9072;SDS011;4572;41.642;25.370;2023-06-10T02:47:34;2.53;;;2.33;;
9072;SDS011;4572;41.642;25.370;2023-06-10T02:49:59;4.03;;;2.87;;
9072;SDS011;4572;41.642;25.370;2023-06-10T02:52:25;3.87;;;2.77;;
9072;SDS011;4572;41.642;25.370;2023-06-10T02:54:50;3.63;;;3.27;;
9072;SDS011;4572;41.642;25.370;2023-06-10T02:57:16;3.30;;;2.67;;
9072;SDS011;4572;41.642;25.370;2023-06-10T02:59:41;3.83;;;2.70;;
9072;SDS011;4572;41.642;25.370;2023-06-10T03:02:07;3.20;;;2.90;;
9072;SDS011;4572;41.642;25.370;2023-06-10T03:04:32;3.57;;;3.17;;
9072;SDS011;4572;41.642;25.370;2023-06-10T03:06:58;7.13;;;2.90;;
9072;SDS011;4572;41.642;25.370;2023-06-10T03:09:25;3.30;;;2.87;;
9072;SDS011;4572;41.642;25.370;2023-06-10T03:11:51;3.53;;;2.97;;
9072;SDS011;4572;41.642;25.370;2023-06-10T03:14:16;3.00;;;2.60;;
9072;SDS011;4572;41.642;25.370;2023-06-10T03:16:42;3.53;;;3.07;;
9072;SDS011;4572;41.642;25.370;2023-06-10T03:19:08;4.27;;;3.10;;
9072;SDS011;4572;41.642;25.370;2023-06-10T03:21:34;3.50;;;2.93;;
9072;SDS011;4572;41.642;25.370;2023-06-10T03:24:00;4.60;;;3.30;;
9072;SDS011;4572;41.642;25.370;2023-06-10T03:26:26;3.57;;;2.70;;
9072;SDS011;4572;41.642;25.370;2023-06-10T03:28:52;4.00;;;2.67;;
9072;SDS011;4572;41.642;25.370;2023-06-10T03:31:18;3.27;;;2.97;;
9072;SDS011;4572;41.642;25.370;2023-06-10T03:33:43;3.77;;;3.30;;
9072;SDS011;4572;41.642;25.370;2023-06-10T03:36:09;4.03;;;3.00;;
9072;SDS011;4572;41.642;25.370;2023-06-10T03:38:35;3.30;;;2.90;;
9072;SDS011;4572;41.642;25.370;2023-06-10T03:41:00;5.40;;;3.33;;
9072;SDS011;4572;41.642;25.370;2023-06-10T03:43:26;3.60;;;3.07;;
9072;SDS011;4572;41.642;25.370;2023-06-10T03:45:52;4.10;;;2.90;;
9072;SDS011;4572;41.642;25.370;2023-06-10T03:48:18;3.73;;;3.33;;
9072;SDS011;4572;41.642;25.370;2023-06-10T03:50:44;3.40;;;3.10;;
9072;SDS011;4572;41.642;25.370;2023-06-10T03:53:09;3.73;;;3.00;;
9072;SDS011;4572;41.642;25.370;2023-06-10T03:55:35;3.87;;;3.33;;
9072;SDS011;4572;41.642;25.370;2023-06-10T03:58:01;4.20;;;3.50;;
9072;SDS011;4572;41.642;25.370;2023-06-10T04:00:27;4.40;;;3.67;;
9072;SDS011;4572;41.642;25.370;2023-06-10T04:02:53;5.77;;;3.70;;
9072;SDS011;4572;41.642;25.370;2023-06-10T04:05:23;5.63;;;3.70;;
9072;SDS011;4572;41.642;25.370;2023-06-10T04:07:48;5.88;;;3.35;;
9072;SDS011;4572;41.642;25.370;2023-06-10T04:10:15;6.80;;;3.27;;
9072;SDS011;4572;41.642;25.370;2023-06-10T04:12:41;4.03;;;3.57;;
9072;SDS011;4572;41.642;25.370;2023-06-10T04:15:06;5.03;;;3.50;;
9072;SDS011;4572;41.642;25.370;2023-06-10T04:17:32;4.35;;;3.38;;
9072;SDS011;4572;41.642;25.370;2023-06-10T04:19:58;3.78;;;3.42;;
9072;SDS011;4572;41.642;25.370;2023-06-10T04:22:24;3.83;;;3.42;;
9072;SDS011;4572;41.642;25.370;2023-06-10T04:24:49;10.65;;;3.28;;
9072;SDS011;4572;41.642;25.370;2023-06-10T04:27:15;4.00;;;3.23;;
9072;SDS011;4572;41.642;25.370;2023-06-10T04:29:41;4.78;;;3.08;;
9072;SDS011;4572;41.642;25.370;2023-06-10T04:32:06;3.75;;;3.30;;
9072;SDS011;4572;41.642;25.370;2023-06-10T04:34:32;4.82;;;3.15;;
9072;SDS011;4572;41.642;25.370;2023-06-10T04:36:58;7.13;;;4.27;;
9072;SDS011;4572;41.642;25.370;2023-06-10T04:39:24;4.53;;;3.63;;
9072;SDS011;4572;41.642;25.370;2023-06-10T04:41:49;4.68;;;3.53;;
9072;SDS011;4572;41.642;25.370;2023-06-10T04:44:15;6.18;;;3.28;;
9072;SDS011;4572;41.642;25.370;2023-06-10T04:46:40;5.72;;;4.00;;
9072;SDS011;4572;41.642;25.370;2023-06-10T04:49:06;4.32;;;3.55;;
9072;SDS011;4572;41.642;25.370;2023-06-10T04:51:32;4.72;;;3.45;;
9072;SDS011;4572;41.642;25.370;2023-06-10T04:53:58;4.47;;;3.63;;
9072;SDS011;4572;41.642;25.370;2023-06-10T04:56:23;3.72;;;3.33;;
9072;SDS011;4572;41.642;25.370;2023-06-10T04:58:49;3.65;;;3.10;;
9072;SDS011;4572;41.642;25.370;2023-06-10T05:01:15;3.70;;;3.35;;
9072;SDS011;4572;41.642;25.370;2023-06-10T05:03:40;5.82;;;3.60;;
9072;SDS011;4572;41.642;25.370;2023-06-10T05:06:06;4.82;;;3.60;;
9072;SDS011;4572;41.642;25.370;2023-06-10T05:08:31;5.38;;;3.25;;
9072;SDS011;4572;41.642;25.370;2023-06-10T05:10:58;6.50;;;3.90;;
9072;SDS011;4572;41.642;25.370;2023-06-10T05:13:24;7.53;;;4.38;;
9072;SDS011;4572;41.642;25.370;2023-06-10T05:15:49;4.50;;;3.78;;
9072;SDS011;4572;41.642;25.370;2023-06-10T05:18:15;5.85;;;3.83;;
9072;SDS011;4572;41.642;25.370;2023-06-10T05:20:40;5.55;;;4.22;;
9072;SDS011;4572;41.642;25.370;2023-06-10T05:23:06;6.32;;;3.97;;
9072;SDS011;4572;41.642;25.370;2023-06-10T05:25:31;7.30;;;4.30;;
9072;SDS011;4572;41.642;25.370;2023-06-10T05:27:57;5.47;;;4.45;;
9072;SDS011;4572;41.642;25.370;2023-06-10T05:30:23;5.50;;;4.78;;
9072;SDS011;4572;41.642;25.370;2023-06-10T05:32:49;13.90;;;4.55;;
9072;SDS011;4572;41.642;25.370;2023-06-10T05:35:16;6.32;;;3.67;;
9072;SDS011;4572;41.642;25.370;2023-06-10T05:37:42;5.97;;;4.32;;
9072;SDS011;4572;41.642;25.370;2023-06-10T05:40:08;6.28;;;4.30;;
9072;SDS011;4572;41.642;25.370;2023-06-10T05:42:34;6.97;;;4.57;;
9072;SDS011;4572;41.642;25.370;2023-06-10T05:45:00;3.90;;;3.42;;
9072;SDS011;4572;41.642;25.370;2023-06-10T05:47:25;5.10;;;3.83;;
9072;SDS011;4572;41.642;25.370;2023-06-10T05:49:51;4.80;;;4.13;;
9072;SDS011;4572;41.642;25.370;2023-06-10T05:52:17;4.90;;;4.32;;
9072;SDS011;4572;41.642;25.370;2023-06-10T05:54:43;5.18;;;3.95;;
9072;SDS011;4572;41.642;25.370;2023-06-10T05:57:08;6.40;;;3.97;;
9072;SDS011;4572;41.642;25.370;2023-06-10T05:59:35;4.45;;;3.67;;
9072;SDS011;4572;41.642;25.370;2023-06-10T06:02:00;4.88;;;3.58;;
9072;SDS011;4572;41.642;25.370;2023-06-10T06:04:26;5.47;;;4.03;;
9072;SDS011;4572;41.642;25.370;2023-06-10T06:06:51;5.05;;;4.13;;
9072;SDS011;4572;41.642;25.370;2023-06-10T06:09:17;7.18;;;4.30;;
9072;SDS011;4572;41.642;25.370;2023-06-10T06:11:42;7.57;;;4.82;;
9072;SDS011;4572;41.642;25.370;2023-06-10T06:14:08;4.32;;;3.47;;
9072;SDS011;4572;41.642;25.370;2023-06-10T06:16:33;5.75;;;4.35;;
9072;SDS011;4572;41.642;25.370;2023-06-10T06:18:59;4.50;;;3.85;;
9072;SDS011;4572;41.642;25.370;2023-06-10T06:21:24;4.22;;;3.67;;
9072;SDS011;4572;41.642;25.370;2023-06-10T06:23:50;5.53;;;3.42;;
9072;SDS011;4572;41.642;25.370;2023-06-10T06:26:15;4.95;;;3.95;;
9072;SDS011;4572;41.642;25.370;2023-06-10T06:28:41;5.78;;;4.20;;
9072;SDS011;4572;41.642;25.370;2023-06-10T06:31:06;4.93;;;4.03;;
9072;SDS011;4572;41.642;25.370;2023-06-10T06:33:32;5.82;;;3.88;;
9072;SDS011;4572;41.642;25.370;2023-06-10T06:35:58;3.95;;;3.20;;
9072;SDS011;4572;41.642;25.370;2023-06-10T06:38:25;4.70;;;3.28;;
9072;SDS011;4572;41.642;25.370;2023-06-10T06:40:51;6.75;;;4.97;;
9072;SDS011;4572;41.642;25.370;2023-06-10T06:43:17;4.35;;;3.55;;
9072;SDS011;4572;41.642;25.370;2023-06-10T06:45:43;5.60;;;4.30;;
9072;SDS011;4572;41.642;25.370;2023-06-10T06:48:10;4.03;;;3.42;;
9072;SDS011;4572;41.642;25.370;2023-06-10T06:50:36;3.70;;;3.33;;
9072;SDS011;4572;41.642;25.370;2023-06-10T06:53:01;4.85;;;3.95;;
9072;SDS011;4572;41.642;25.370;2023-06-10T06:55:27;5.40;;;3.67;;
9072;SDS011;4572;41.642;25.370;2023-06-10T06:57:53;5.43;;;3.95;;
9072;SDS011;4572;41.642;25.370;2023-06-10T07:00:18;4.07;;;3.33;;
9072;SDS011;4572;41.642;25.370;2023-06-10T07:02:44;3.95;;;3.58;;
9072;SDS011;4572;41.642;25.370;2023-06-10T07:05:10;4.88;;;3.92;;
9072;SDS011;4572;41.642;25.370;2023-06-10T07:07:35;4.03;;;3.60;;
9072;SDS011;4572;41.642;25.370;2023-06-10T07:10:01;4.45;;;3.15;;
9072;SDS011;4572;41.642;25.370;2023-06-10T07:12:26;5.72;;;3.90;;
9072;SDS011;4572;41.642;25.370;2023-06-10T07:14:52;3.97;;;3.35;;
9072;SDS011;4572;41.642;25.370;2023-06-10T07:17:17;7.22;;;3.63;;
9072;SDS011;4572;41.642;25.370;2023-06-10T07:19:43;5.00;;;3.58;;
9072;SDS011;4572;41.642;25.370;2023-06-10T07:22:09;6.13;;;3.17;;
9072;SDS011;4572;41.642;25.370;2023-06-10T07:24:35;6.43;;;3.88;;
9072;SDS011;4572;41.642;25.370;2023-06-10T07:27:01;3.60;;;3.28;;
9072;SDS011;4572;41.642;25.370;2023-06-10T07:29:26;4.57;;;3.80;;
9072;SDS011;4572;41.642;25.370;2023-06-10T07:31:51;6.13;;;4.15;;
9072;SDS011;4572;41.642;25.370;2023-06-10T07:34:18;5.20;;;3.92;;
9072;SDS011;4572;41.642;25.370;2023-06-10T07:36:44;5.85;;;4.05;;
9072;SDS011;4572;41.642;25.370;2023-06-10T07:39:09;7.07;;;3.90;;
9072;SDS011;4572;41.642;25.370;2023-06-10T07:41:35;6.82;;;3.83;;
9072;SDS011;4572;41.642;25.370;2023-06-10T07:44:00;5.28;;;3.70;;
9072;SDS011;4572;41.642;25.370;2023-06-10T07:46:26;5.00;;;3.50;;
9072;SDS011;4572;41.642;25.370;2023-06-10T07:48:53;4.95;;;3.83;;
9072;SDS011;4572;41.642;25.370;2023-06-10T07:51:19;5.65;;;4.00;;
9072;SDS011;4572;41.642;25.370;2023-06-10T07:53:45;6.25;;;4.50;;
9072;SDS011;4572;41.642;25.370;2023-06-10T07:56:11;7.00;;;4.85;;
9072;SDS011;4572;41.642;25.370;2023-06-10T07:58:37;6.53;;;4.10;;
9072;SDS011;4572;41.642;25.370;2023-06-10T08:01:02;5.60;;;4.45;;
9072;SDS011;4572;41.642;25.370;2023-06-10T08:03:27;9.38;;;4.30;;
9072;SDS011;4572;41.642;25.370;2023-06-10T08:05:53;5.05;;;3.97;;
9072;SDS011;4572;41.642;25.370;2023-06-10T08:08:18;4.75;;;4.00;;
9072;SDS011;4572;41.642;25.370;2023-06-10T08:10:44;4.47;;;3.83;;
9072;SDS011;4572;41.642;25.370;2023-06-10T08:13:10;3.95;;;3.58;;
9072;SDS011;4572;41.642;25.370;2023-06-10T08:15:35;4.65;;;3.20;;
9072;SDS011;4572;41.642;25.370;2023-06-10T08:18:01;5.70;;;3.55;;
9072;SDS011;4572;41.642;25.370;2023-06-10T08:20:26;4.63;;;3.88;;
9072;SDS011;4572;41.642;25.370;2023-06-10T08:22:51;4.95;;;3.50;;
9072;SDS011;4572;41.642;25.370;2023-06-10T08:25:17;3.83;;;3.10;;
9072;SDS011;4572;41.642;25.370;2023-06-10T08:27:42;4.18;;;3.25;;
9072;SDS011;4572;41.642;25.370;2023-06-10T08:30:09;2.88;;;2.35;;
9072;SDS011;4572;41.642;25.370;2023-06-10T08:32:38;3.50;;;2.90;;
9072;SDS011;4572;41.642;25.370;2023-06-10T08:35:04;2.67;;;2.30;;
9072;SDS011;4572;41.642;25.370;2023-06-10T08:37:30;3.30;;;2.50;;
9072;SDS011;4572;41.642;25.370;2023-06-10T08:39:55;2.15;;;2.00;;
9072;SDS011;4572;41.642;25.370;2023-06-10T08:42:33;2.80;;;2.35;;
9072;SDS011;4572;41.642;25.370;2023-06-10T08:45:20;3.92;;;2.35;;
9072;SDS011;4572;41.642;25.370;2023-06-10T08:47:49;2.53;;;2.22;;
9072;SDS011;4572;41.642;25.370;2023-06-10T08:50:17;2.78;;;2.58;;
9072;SDS011;4572;41.642;25.370;2023-06-10T08:52:43;3.10;;;2.20;;
9072;SDS011;4572;41.642;25.370;2023-06-10T08:55:21;2.65;;;2.35;;
9072;SDS011;4572;41.642;25.370;2023-06-10T08:57:51;2.60;;;2.40;;
9072;SDS011;4572;41.642;25.370;2023-06-10T09:00:17;2.15;;;1.95;;
9072;SDS011;4572;41.642;25.370;2023-06-10T09:02:43;2.58;;;2.38;;
9072;SDS011;4572;41.642;25.370;2023-06-10T09:05:09;2.95;;;2.45;;
9072;SDS011;4572;41.642;25.370;2023-06-10T09:07:35;2.65;;;2.33;;
9072;SDS011;4572;41.642;25.370;2023-06-10T09:10:02;3.60;;;2.45;;
9072;SDS011;4572;41.642;25.370;2023-06-10T09:12:29;3.78;;;2.30;;
9072;SDS011;4572;41.642;25.370;2023-06-10T09:14:54;3.45;;;2.33;;
9072;SDS011;4572;41.642;25.370;2023-06-10T09:17:20;2.38;;;2.08;;
9072;SDS011;4572;41.642;25.370;2023-06-10T09:19:46;3.67;;;2.50;;
9072;SDS011;4572;41.642;25.370;2023-06-10T09:22:12;2.38;;;2.05;;
9072;SDS011;4572;41.642;25.370;2023-06-10T09:24:38;2.70;;;2.50;;
9072;SDS011;4572;41.642;25.370;2023-06-10T09:27:07;3.17;;;2.88;;
9072;SDS011;4572;41.642;25.370;2023-06-10T09:30:07;2.65;;;2.22;;
9072;SDS011;4572;41.642;25.370;2023-06-10T09:32:25;4.25;;;2.45;;
9072;SDS011;4572;41.642;25.370;2023-06-10T09:34:51;2.53;;;2.30;;
9072;SDS011;4572;41.642;25.370;2023-06-10T09:37:23;2.67;;;2.38;;
9072;SDS011;4572;41.642;25.370;2023-06-10T09:40:04;5.35;;;2.60;;
9072;SDS011;4572;41.642;25.370;2023-06-10T09:42:38;3.53;;;2.30;;
9072;SDS011;4572;41.642;25.370;2023-06-10T09:45:04;2.95;;;2.60;;
9072;SDS011;4572;41.642;25.370;2023-06-10T09:47:33;2.67;;;2.38;;
9072;SDS011;4572;41.642;25.370;2023-06-10T09:49:58;2.60;;;2.40;;
9072;SDS011;4572;41.642;25.370;2023-06-10T09:52:25;2.40;;;2.20;;
9072;SDS011;4572;41.642;25.370;2023-06-10T09:54:52;2.80;;;2.30;;
9072;SDS011;4572;41.642;25.370;2023-06-10T09:57:30;2.67;;;2.40;;
9072;SDS011;4572;41.642;25.370;2023-06-10T10:00:04;3.13;;;2.03;;
9072;SDS011;4572;41.642;25.370;2023-06-10T10:02:39;2.75;;;2.42;;
9072;SDS011;4572;41.642;25.370;2023-06-10T10:05:15;2.60;;;2.40;;
9072;SDS011;4572;41.642;25.370;2023-06-10T10:07:42;3.40;;;2.80;;
9072;SDS011;4572;41.642;25.370;2023-06-10T10:10:08;3.42;;;2.50;;
9072;SDS011;4572;41.642;25.370;2023-06-10T10:12:35;2.65;;;2.40;;
9072;SDS011;4572;41.642;25.370;2023-06-10T10:15:01;3.20;;;2.38;;
9072;SDS011;4572;41.642;25.370;2023-06-10T10:17:27;2.20;;;1.98;;
9072;SDS011;4572;41.642;25.370;2023-06-10T10:19:56;4.32;;;2.83;;
9072;SDS011;4572;41.642;25.370;2023-06-10T10:22:26;2.80;;;2.45;;
9072;SDS011;4572;41.642;25.370;2023-06-10T10:24:55;3.45;;;2.65;;
9072;SDS011;4572;41.642;25.370;2023-06-10T10:27:33;5.63;;;2.60;;
9072;SDS011;4572;41.642;25.370;2023-06-10T10:30:01;4.00;;;2.95;;
9072;SDS011;4572;41.642;25.370;2023-06-10T10:32:32;2.67;;;2.47;;
9072;SDS011;4572;41.642;25.370;2023-06-10T10:37:33;3.40;;;2.63;;
9072;SDS011;4572;41.642;25.370;2023-06-10T10:39:59;5.55;;;2.78;;
9072;SDS011;4572;41.642;25.370;2023-06-10T10:42:26;6.78;;;3.00;;
9072;SDS011;4572;41.642;25.370;2023-06-10T10:44:51;2.60;;;2.40;;
9072;SDS011;4572;41.642;25.370;2023-06-10T10:47:18;2.60;;;2.40;;
9072;SDS011;4572;41.642;25.370;2023-06-10T10:49:46;4.57;;;3.03;;
9072;SDS011;4572;41.642;25.370;2023-06-10T10:52:14;2.83;;;2.53;;
9072;SDS011;4572;41.642;25.370;2023-06-10T10:54:43;3.00;;;2.70;;
9072;SDS011;4572;41.642;25.370;2023-06-10T10:59:55;3.65;;;2.47;;
9072;SDS011;4572;41.642;25.370;2023-06-10T11:05:18;3.63;;;2.50;;
9072;SDS011;4572;41.642;25.370;2023-06-10T11:07:56;4.13;;;2.72;;
9072;SDS011;4572;41.642;25.370;2023-06-10T11:10:32;4.30;;;2.72;;
9072;SDS011;4572;41.642;25.370;2023-06-10T11:12:59;2.72;;;2.53;;
9072;SDS011;4572;41.642;25.370;2023-06-10T11:15:25;3.00;;;2.63;;
9072;SDS011;4572;41.642;25.370;2023-06-10T11:18:08;2.53;;;2.33;;
9072;SDS011;4572;41.642;25.370;2023-06-10T11:20:44;2.50;;;2.30;;
9072;SDS011;4572;41.642;25.370;2023-06-10T11:23:10;2.75;;;2.30;;
9072;SDS011;4572;41.642;25.370;2023-06-10T11:25:39;3.38;;;2.70;;
9072;SDS011;4572;41.642;25.370;2023-06-10T11:28:18;2.88;;;2.60;;
9072;SDS011;4572;41.642;25.370;2023-06-10T11:30:44;2.25;;;2.05;;
9072;SDS011;4572;41.642;25.370;2023-06-10T11:33:14;2.40;;;2.20;;
9072;SDS011;4572;41.642;25.370;2023-06-10T11:35:41;2.13;;;2.00;;
9072;SDS011;4572;41.642;25.370;2023-06-10T11:38:07;4.82;;;2.15;;
9072;SDS011;4572;41.642;25.370;2023-06-10T11:40:33;2.88;;;2.58;;
9072;SDS011;4572;41.642;25.370;2023-06-10T11:43:00;2.92;;;2.10;;
9072;SDS011;4572;41.642;25.370;2023-06-10T11:45:25;2.75;;;2.33;;
9072;SDS011;4572;41.642;25.370;2023-06-10T11:47:57;3.25;;;2.90;;
9072;SDS011;4572;41.642;25.370;2023-06-10T11:50:33;2.38;;;2.17;;
9072;SDS011;4572;41.642;25.370;2023-06-10T11:52:59;5.00;;;2.78;;
9072;SDS011;4572;41.642;25.370;2023-06-10T11:55:44;3.00;;;2.72;;
9072;SDS011;4572;41.642;25.370;2023-06-10T11:58:14;2.40;;;2.20;;
9072;SDS011;4572;41.642;25.370;2023-06-10T12:00:44;4.05;;;2.20;;
9072;SDS011;4572;41.642;25.370;2023-06-10T12:03:21;3.92;;;2.65;;
9072;SDS011;4572;41.642;25.370;2023-06-10T12:05:59;2.60;;;2.40;;
9072;SDS011;4572;41.642;25.370;2023-06-10T12:08:29;3.13;;;2.45;;
9072;SDS011;4572;41.642;25.370;2023-06-10T12:10:55;3.33;;;2.70;;
9072;SDS011;4572;41.642;25.370;2023-06-10T12:13:21;3.25;;;2.80;;
9072;SDS011;4572;41.642;25.370;2023-06-10T12:15:49;3.92;;;2.42;;
9072;SDS011;4572;41.642;25.370;2023-06-10T12:18:24;3.53;;;2.67;;
9072;SDS011;4572;41.642;25.370;2023-06-10T12:20:50;3.95;;;2.53;;
9072;SDS011;4572;41.642;25.370;2023-06-10T12:23:18;5.07;;;2.97;;
9072;SDS011;4572;41.642;25.370;2023-06-10T12:25:54;2.80;;;2.13;;
9072;SDS011;4572;41.642;25.370;2023-06-10T12:28:21;4.07;;;2.55;;
9072;SDS011;4572;41.642;25.370;2023-06-10T12:30:51;3.42;;;3.13;;
9072;SDS011;4572;41.642;25.370;2023-06-10T12:33:17;2.55;;;2.28;;
9072;SDS011;4572;41.642;25.370;2023-06-10T12:35:47;5.70;;;2.53;;
9072;SDS011;4572;41.642;25.370;2023-06-10T12:38:13;2.40;;;2.20;;
9072;SDS011;4572;41.642;25.370;2023-06-10T12:40:39;4.65;;;2.42;;
9072;SDS011;4572;41.642;25.370;2023-06-10T12:43:08;2.83;;;2.40;;
9072;SDS011;4572;41.642;25.370;2023-06-10T12:45:35;4.57;;;2.60;;
9072;SDS011;4572;41.642;25.370;2023-06-10T12:48:08;2.90;;;2.55;;
9072;SDS011;4572;41.642;25.370;2023-06-10T12:50:34;3.05;;;2.53;;
9072;SDS011;4572;41.642;25.370;2023-06-10T12:53:02;3.58;;;2.70;;
9072;SDS011;4572;41.642;25.370;2023-06-10T12:55:28;3.33;;;2.70;;
9072;SDS011;4572;41.642;25.370;2023-06-10T12:57:54;2.92;;;2.72;;
9072;SDS011;4572;41.642;25.370;2023-06-10T13:00:21;2.65;;;2.45;;
9072;SDS011;4572;41.642;25.370;2023-06-10T13:07:54;2.90;;;2.28;;
9072;SDS011;4572;41.642;25.370;2023-06-10T13:10:20;3.97;;;3.00;;
9072;SDS011;4572;41.642;25.370;2023-06-10T13:12:46;3.10;;;2.35;;
9072;SDS011;4572;41.642;25.370;2023-06-10T13:15:12;4.38;;;2.90;;
9072;SDS011;4572;41.642;25.370;2023-06-10T13:17:38;4.07;;;3.20;;
9072;SDS011;4572;41.642;25.370;2023-06-10T13:20:04;3.22;;;2.75;;
9072;SDS011;4572;41.642;25.370;2023-06-10T13:22:31;3.92;;;2.58;;
9072;SDS011;4572;41.642;25.370;2023-06-10T13:25:04;3.90;;;2.80;;
9072;SDS011;4572;41.642;25.370;2023-06-10T13:27:32;3.72;;;2.53;;
9072;SDS011;4572;41.642;25.370;2023-06-10T13:29:58;5.05;;;3.50;;
9072;SDS011;4572;41.642;25.370;2023-06-10T13:32:23;4.22;;;3.17;;
9072;SDS011;4572;41.642;25.370;2023-06-10T13:34:49;3.15;;;2.63;;
9072;SDS011;4572;41.642;25.370;2023-06-10T13:37:15;3.53;;;2.83;;
9072;SDS011;4572;41.642;25.370;2023-06-10T13:39:43;4.90;;;3.03;;
9072;SDS011;4572;41.642;25.370;2023-06-10T13:42:09;2.90;;;2.58;;
9072;SDS011;4572;41.642;25.370;2023-06-10T13:44:34;2.85;;;2.53;;
9072;SDS011;4572;41.642;25.370;2023-06-10T13:47:02;2.67;;;2.47;;
9072;SDS011;4572;41.642;25.370;2023-06-10T13:49:28;2.97;;;2.42;;
9072;SDS011;4572;41.642;25.370;2023-06-10T13:51:53;3.38;;;3.00;;
9072;SDS011;4572;41.642;25.370;2023-06-10T13:54:19;2.95;;;2.50;;
9072;SDS011;4572;41.642;25.370;2023-06-10T13:56:44;2.85;;;2.42;;
9072;SDS011;4572;41.642;25.370;2023-06-10T13:59:10;3.08;;;2.50;;
9072;SDS011;4572;41.642;25.370;2023-06-10T14:01:35;3.10;;;2.80;;
9072;SDS011;4572;41.642;25.370;2023-06-10T14:04:01;5.00;;;3.88;;
9072;SDS011;4572;41.642;25.370;2023-06-10T14:06:27;11.18;;;6.35;;
9072;SDS011;4572;41.642;25.370;2023-06-10T14:08:53;4.30;;;3.50;;
9072;SDS011;4572;41.642;25.370;2023-06-10T14:11:20;4.03;;;2.75;;
9072;SDS011;4572;41.642;25.370;2023-06-10T14:13:46;5.32;;;2.95;;
9072;SDS011;4572;41.642;25.370;2023-06-10T14:16:11;3.55;;;3.25;;
9072;SDS011;4572;41.642;25.370;2023-06-10T14:18:37;4.15;;;3.05;;
9072;SDS011;4572;41.642;25.370;2023-06-10T14:21:02;3.10;;;2.58;;
9072;SDS011;4572;41.642;25.370;2023-06-10T14:23:28;3.17;;;2.75;;
9072;SDS011;4572;41.642;25.370;2023-06-10T14:25:53;2.88;;;2.67;;
9072;SDS011;4572;41.642;25.370;2023-06-10T14:28:19;2.47;;;2.28;;
9072;SDS011;4572;41.642;25.370;2023-06-10T14:30:44;2.45;;;2.25;;
9072;SDS011;4572;41.642;25.370;2023-06-10T14:33:09;3.05;;;2.65;;
9072;SDS011;4572;41.642;25.370;2023-06-10T14:35:35;2.97;;;2.67;;
9072;SDS011;4572;41.642;25.370;2023-06-10T14:38:00;3.20;;;2.40;;
9072;SDS011;4572;41.642;25.370;2023-06-10T14:40:26;4.10;;;2.60;;
9072;SDS011;4572;41.642;25.370;2023-06-10T14:42:54;4.05;;;2.47;;
9072;SDS011;4572;41.642;25.370;2023-06-10T14:45:20;3.33;;;2.42;;
9072;SDS011;4572;41.642;25.370;2023-06-10T14:47:45;3.25;;;2.95;;
9072;SDS011;4572;41.642;25.370;2023-06-10T14:50:12;3.17;;;2.88;;
9072;SDS011;4572;41.642;25.370;2023-06-10T14:52:38;3.53;;;2.53;;
9072;SDS011;4572;41.642;25.370;2023-06-10T14:55:03;3.15;;;2.85;;
9072;SDS011;4572;41.642;25.370;2023-06-10T14:57:29;3.75;;;2.78;;
9072;SDS011;4572;41.642;25.370;2023-06-10T14:59:55;4.10;;;2.60;;
9072;SDS011;4572;41.642;25.370;2023-06-10T15:02:21;3.08;;;2.75;;
9072;SDS011;4572;41.642;25.370;2023-06-10T15:04:47;3.60;;;2.40;;
9072;SDS011;4572;41.642;25.370;2023-06-10T15:07:13;3.58;;;2.67;;
9072;SDS011;4572;41.642;25.370;2023-06-10T15:09:40;3.50;;;2.97;;
9072;SDS011;4572;41.642;25.370;2023-06-10T15:12:09;3.10;;;2.80;;
9072;SDS011;4572;41.642;25.370;2023-06-10T15:14:35;5.20;;;2.85;;